Startpagina
METAR-TAF:

METAR-TAF

Vliegvelden :

Foz do Iguaçu, Paraná, Brazilië

Aeroporto Internacional de Foz do Iguaçu

breedte: 25-31S, lengte: 054-35W, hoogte: 180 m

Actueel weer

Dit bericht is 53 minuten geleden gemaakt, om 17:00 UTC
Wind 6 kt uit het zuidwesten
Temperatuur 23°C
Vochtigheid 89%
Druk 1007 hPa
Zicht 10 km of meer
Gebroken wolken op 1100 ft
Gebroken wolken op 2000 ft

METAR: SBFI 181700Z 22006KT 9999 BKN011 BKN020 23/21 Q1007

Tijdstip: 15:53 (17:53 UTC)

Verwachting

Dit bericht is 2 uur en het 38 minuten geleden gemaakt, om 15:15 UTC
Verwachting geldig van 18 om 18 UTC tot 19 om 18 UTC
Wind 7 kt uit het zuidzuidwesten
Zicht 10 km of meer
Verspreide wolken op 1500 ft
Wijzigt naar
van 18 om 20 UTC tot 18 om 22 UTC
Zicht 10 km of meer
geen wolken onder 1500 m en geen cumulonimbus

TAF: SBFI 181515Z 1818/1918 20007KT 9999 SCT015 TN15/1909Z TX30/1918Z BECMG 1820/1822 CAVOK RMK PDW

Waarnemingen en weersverwachtingen van meer dan 4000 vliegvelden (METAR en TAF).

De beschikbare stations zijn de gele en rode punten op de kaart.

Ga met uw muis naar het station om de naam te zien.

Klik dan om waarnemingen en weersverwachtingen te zien.

kaart wijzigen: klik op de groene knoppen met een zwart kruis om in te zoomen, op de groene knop met een streepje om uit te zoomen of op de groene pijlen voor aangrenzende kaarten.


METAR-TAF: